Las horas y fechas están en horario UTC
Sumar 1 hora en el horario de Invierno y 2 horas en el de Verano

Informes METAR cercanos

 

LEZL - Sevilla (civ/Mil, Spain
Distance from station: NNE 24km
Actualización: 03/08/2020 17:30
Despejado
Despejado
 Viento del SSO
Viento: SSO 15 km/h
Temperatura: 34°C
Rocío: 12°C
Humedad: 26%
Barómetro: 1011 hPa
Resumen: Despejado
Visibility: greater than 10 km
2020/08/03 15:30 LEZL 031530Z 20008KT 130V260 CAVOK 34/12 Q1011 NOSIG
LEMO - Moron (sp-Usafb), Spain
Distance from station: E 38km
Actualización: 03/08/2020 17:30
Despejado
Despejado
 Viento del varies
Viento: varies 11 km/h
Temperatura: 34°C
Rocío: 11°C
Humedad: 24%
Barómetro: 1011 hPa
Resumen: Despejado
Visibility: greater than 10 km
2020/08/03 15:30 LEMO 031530Z VRB06KT CAVOK 34/11 Q1011 NOSIG
LEJR - Jerez (civ/Mil), Spain
Distance from station: S 53km
Actualización: 03/08/2020 17:30
Despejado
Despejado
 Viento del SO
Viento: SO 22 km/h
Temperatura: 33°C
Rocío: 12°C
Humedad: 28%
Barómetro: 1012 hPa
Resumen: Despejado
Visibility: greater than 10 km
2020/08/03 15:30 LEJR 031530Z 22012KT 190V260 CAVOK 33/12 Q1012
 
LERT - Rota Naval Stati, Spain
Distance from station: SSO 71km
Actualización: 03/08/2020 17:30
Despejado
Despejado
 Viento del OSO
Viento: OSO 26 km/h
Temperatura: 28°C
Heat Index: 28°C
Rocío: 16°C
Humedad: 48%
Barómetro: 1013 hPa
Resumen: Despejado
Visibility: greater than 10 km
2020/08/03 15:30 LERT 031530Z 25014KT CAVOK 28/16 Q1013 NOSIG
LEBA - Cordoba Airport, Spain
Distance from station: ENE 128km
Actualización: 03/08/2020 17:30
Despejado
Despejado
 Viento del OSO
Viento: OSO 17 km/h
Temperatura: 37°C
Rocío: 10°C
Humedad: 19%
Barómetro: 1010 hPa
Resumen: Despejado
Visibility: greater than 10 km
2020/08/03 15:30 LEBA 031530Z 24009KT 190V280 CAVOK 37/10 Q1010
LXGB - Gibraltar (civ/M, Gibraltar
Distance from station: SSE 137km
Actualización: 03/08/2020 16:50
Despejado
Despejado
 Viento del SO
Viento: SO 24 km/h
Temperatura: 29°C
Heat Index: 29°C
Rocío: 17°C
Humedad: 48%
Barómetro: 1012 hPa
Resumen: Despejado
Visibility: greater than 10 km
2020/08/03 14:50 LXGB 031450Z 23013KT CAVOK 29/17 Q1012 NOSIG
 
LEMG - Malaga (civ/Mil), Spain
Distance from station: ESE 150km
Actualización: 03/08/2020 17:30
Despejado
Despejado
 Viento del NO
Viento: NO 19 km/h
Temperatura: 38°C
Rocío: 11°C
Humedad: 20%
Barómetro: 1009 hPa
Resumen: Despejado
Visibility: greater than 10 km
2020/08/03 15:30 LEMG 031530Z 31010KT CAVOK 38/11 Q1009 NOSIG
GMTT - Tangier/Boukhalf, Morocco
Distance from station: S 169km
Actualización: 03/08/2020 17:30
Despejado
Despejado
 Viento del OSO
Viento: OSO 17 km/h
Temperatura: 26°C
Rocío: 17°C
Humedad: 58%
Barómetro: 1014 hPa
Resumen: Despejado
Visibility: greater than 10 km
2020/08/03 15:30 GMTT 031530Z 25009KT 220V280 CAVOK 26/17 Q1014 NOSIG
LPFR - Faro, Portugal
Distance from station: O 172km
Actualización: 03/08/2020 17:30
Despejado
Despejado
 Viento del N
Viento: N 22 km/h
Temperatura: 35°C
Rocío: 12°C
Humedad: 25%
Barómetro: 1012 hPa
Resumen: Despejado
Visibility: greater than 10 km
2020/08/03 15:30 LPFR 031530Z 35012KT 310V020 CAVOK 35/12 Q1012
 
LPBJ - Beja (por/Ger-Af, Portugal
Distance from station: ONO 192km
Actualización: 03/08/2020 17:00
Few Clouds
Few Clouds
 Viento del N
Viento: N 28 km/h
Temperatura: 32°C
Rocío: 11°C
Humedad: 27%
Barómetro: 1015 hPa
Clouds: Few Clouds
Visibility: 10 km
Cloud details: Few Clouds 1463 m
2020/08/03 15:00 LPBJ 031500Z 36015KT 9999 FEW048 32/11 Q1015
LEBZ - Talavera Ab/Bada, Spain
Distance from station: NNO 194km
Actualización: 03/08/2020 17:30
Despejado
Despejado
 Viento del NNO
Viento: NNO 15 km/h
Temperatura: 36°C
Rocío: 10°C
Humedad: 20%
Barómetro: 1012 hPa
Resumen: Despejado
Visibility: greater than 10 km
2020/08/03 15:30 LEBZ 031530Z 34008KT 280V030 CAVOK 36/10 Q1012
LEMD - Madrid/Barajas, Spain
Distance from station: NE 415km
Actualización: 03/08/2020 17:30
Despejado
Despejado
 Viento del N
Viento: N 17 km/h
Temperatura: 33°C
Rocío: 5°C
Humedad: 17%
Barómetro: 1014 hPa
Resumen: Despejado
Visibility: greater than 10 km
2020/08/03 15:30 LEMD 031530Z 36009KT 310V060 CAVOK 33/05 Q1014 NOSIG